sensor_id;sensor_type;location;lat;lon;timestamp;P1;durP1;ratioP1;P2;durP2;ratioP2
68010;SDS011;54794;48.348;7.878;2022-08-19T00:02:07;6.00;;;5.38;;
68010;SDS011;54794;48.348;7.878;2022-08-19T00:04:34;6.07;;;4.75;;
68010;SDS011;54794;48.348;7.878;2022-08-19T00:07:03;5.68;;;5.13;;
68010;SDS011;54794;48.348;7.878;2022-08-19T00:09:31;8.32;;;4.65;;
68010;SDS011;54794;48.348;7.878;2022-08-19T00:11:58;5.47;;;4.57;;
68010;SDS011;54794;48.348;7.878;2022-08-19T00:16:57;4.25;;;3.85;;
68010;SDS011;54794;48.348;7.878;2022-08-19T00:19:25;5.72;;;5.10;;
68010;SDS011;54794;48.348;7.878;2022-08-19T00:21:53;6.07;;;5.38;;
68010;SDS011;54794;48.348;7.878;2022-08-19T00:24:21;5.13;;;4.63;;
68010;SDS011;54794;48.348;7.878;2022-08-19T00:26:48;5.32;;;4.72;;
68010;SDS011;54794;48.348;7.878;2022-08-19T00:29:18;5.68;;;5.07;;
68010;SDS011;54794;48.348;7.878;2022-08-19T00:31:47;5.35;;;4.80;;
68010;SDS011;54794;48.348;7.878;2022-08-19T00:34:15;7.15;;;4.38;;
68010;SDS011;54794;48.348;7.878;2022-08-19T00:36:43;4.80;;;4.30;;
68010;SDS011;54794;48.348;7.878;2022-08-19T00:39:11;4.95;;;4.47;;
68010;SDS011;54794;48.348;7.878;2022-08-19T00:41:39;6.20;;;4.80;;
68010;SDS011;54794;48.348;7.878;2022-08-19T00:46:42;5.57;;;4.65;;
68010;SDS011;54794;48.348;7.878;2022-08-19T00:49:25;4.22;;;3.75;;
68010;SDS011;54794;48.348;7.878;2022-08-19T00:52:06;5.10;;;4.50;;
68010;SDS011;54794;48.348;7.878;2022-08-19T00:54:39;6.50;;;5.05;;
68010;SDS011;54794;48.348;7.878;2022-08-19T00:57:09;6.40;;;5.75;;
68010;SDS011;54794;48.348;7.878;2022-08-19T00:59:44;6.95;;;5.15;;
68010;SDS011;54794;48.348;7.878;2022-08-19T01:02:27;5.00;;;4.50;;
68010;SDS011;54794;48.348;7.878;2022-08-19T01:04:57;6.82;;;5.72;;
68010;SDS011;54794;48.348;7.878;2022-08-19T01:07:26;6.90;;;5.47;;
68010;SDS011;54794;48.348;7.878;2022-08-19T01:10:00;6.38;;;5.72;;
68010;SDS011;54794;48.348;7.878;2022-08-19T01:12:30;5.70;;;5.07;;
68010;SDS011;54794;48.348;7.878;2022-08-19T01:14:57;6.32;;;4.60;;
68010;SDS011;54794;48.348;7.878;2022-08-19T01:17:25;6.22;;;5.60;;
68010;SDS011;54794;48.348;7.878;2022-08-19T01:19:53;5.88;;;5.28;;
68010;SDS011;54794;48.348;7.878;2022-08-19T01:24:58;6.00;;;5.40;;
68010;SDS011;54794;48.348;7.878;2022-08-19T01:27:25;4.70;;;4.18;;
68010;SDS011;54794;48.348;7.878;2022-08-19T01:29:56;6.40;;;5.50;;
68010;SDS011;54794;48.348;7.878;2022-08-19T01:32:23;5.90;;;5.32;;
68010;SDS011;54794;48.348;7.878;2022-08-19T01:34:59;7.30;;;5.65;;
68010;SDS011;54794;48.348;7.878;2022-08-19T01:37:28;6.00;;;5.05;;
68010;SDS011;54794;48.348;7.878;2022-08-19T01:39:56;6.15;;;5.55;;
68010;SDS011;54794;48.348;7.878;2022-08-19T01:42:24;5.40;;;4.43;;
68010;SDS011;54794;48.348;7.878;2022-08-19T01:44:55;4.65;;;4.22;;
68010;SDS011;54794;48.348;7.878;2022-08-19T01:47:22;5.57;;;4.85;;
68010;SDS011;54794;48.348;7.878;2022-08-19T01:49:50;5.32;;;4.38;;
68010;SDS011;54794;48.348;7.878;2022-08-19T01:52:17;7.43;;;4.72;;
68010;SDS011;54794;48.348;7.878;2022-08-19T01:54:44;5.90;;;5.20;;
68010;SDS011;54794;48.348;7.878;2022-08-19T01:57:11;5.57;;;4.40;;
68010;SDS011;54794;48.348;7.878;2022-08-19T01:59:41;7.00;;;5.38;;
68010;SDS011;54794;48.348;7.878;2022-08-19T02:02:10;6.38;;;5.38;;
68010;SDS011;54794;48.348;7.878;2022-08-19T02:04:37;4.40;;;4.00;;
68010;SDS011;54794;48.348;7.878;2022-08-19T02:07:05;6.03;;;4.93;;
68010;SDS011;54794;48.348;7.878;2022-08-19T02:09:34;4.18;;;3.78;;
68010;SDS011;54794;48.348;7.878;2022-08-19T02:12:02;4.28;;;3.85;;
68010;SDS011;54794;48.348;7.878;2022-08-19T02:14:30;7.38;;;4.72;;
68010;SDS011;54794;48.348;7.878;2022-08-19T02:17:00;5.75;;;5.07;;
68010;SDS011;54794;48.348;7.878;2022-08-19T02:19:27;5.97;;;5.38;;
68010;SDS011;54794;48.348;7.878;2022-08-19T02:21:54;6.38;;;5.20;;
68010;SDS011;54794;48.348;7.878;2022-08-19T02:24:20;6.55;;;5.53;;
68010;SDS011;54794;48.348;7.878;2022-08-19T02:26:47;6.65;;;5.13;;
68010;SDS011;54794;48.348;7.878;2022-08-19T02:29:14;5.68;;;5.00;;
68010;SDS011;54794;48.348;7.878;2022-08-19T02:31:42;5.75;;;5.05;;
68010;SDS011;54794;48.348;7.878;2022-08-19T02:34:09;7.78;;;5.45;;
68010;SDS011;54794;48.348;7.878;2022-08-19T02:36:36;5.78;;;4.60;;
68010;SDS011;54794;48.348;7.878;2022-08-19T02:39:07;5.47;;;4.93;;
68010;SDS011;54794;48.348;7.878;2022-08-19T02:41:35;5.78;;;4.60;;
68010;SDS011;54794;48.348;7.878;2022-08-19T02:44:03;5.20;;;4.32;;
68010;SDS011;54794;48.348;7.878;2022-08-19T02:46:50;6.13;;;5.03;;
68010;SDS011;54794;48.348;7.878;2022-08-19T02:49:17;4.95;;;4.38;;
68010;SDS011;54794;48.348;7.878;2022-08-19T02:51:45;5.20;;;4.70;;
68010;SDS011;54794;48.348;7.878;2022-08-19T02:54:14;6.47;;;5.70;;
68010;SDS011;54794;48.348;7.878;2022-08-19T02:56:42;5.88;;;5.22;;
68010;SDS011;54794;48.348;7.878;2022-08-19T02:59:10;5.95;;;4.97;;
68010;SDS011;54794;48.348;7.878;2022-08-19T03:01:39;7.95;;;5.03;;
68010;SDS011;54794;48.348;7.878;2022-08-19T03:04:09;5.10;;;4.22;;
68010;SDS011;54794;48.348;7.878;2022-08-19T03:06:43;6.40;;;5.70;;
68010;SDS011;54794;48.348;7.878;2022-08-19T03:09:12;6.85;;;4.95;;
68010;SDS011;54794;48.348;7.878;2022-08-19T03:11:40;7.53;;;4.88;;
68010;SDS011;54794;48.348;7.878;2022-08-19T03:14:07;8.48;;;4.85;;
68010;SDS011;54794;48.348;7.878;2022-08-19T03:16:49;5.95;;;5.40;;
68010;SDS011;54794;48.348;7.878;2022-08-19T03:19:19;5.20;;;4.70;;
68010;SDS011;54794;48.348;7.878;2022-08-19T03:21:47;6.50;;;5.57;;
68010;SDS011;54794;48.348;7.878;2022-08-19T03:26:44;6.53;;;5.70;;
68010;SDS011;54794;48.348;7.878;2022-08-19T03:29:15;8.35;;;6.70;;
68010;SDS011;54794;48.348;7.878;2022-08-19T03:31:55;6.22;;;5.13;;
68010;SDS011;54794;48.348;7.878;2022-08-19T03:34:26;5.10;;;4.53;;
68010;SDS011;54794;48.348;7.878;2022-08-19T03:36:56;5.38;;;4.88;;
68010;SDS011;54794;48.348;7.878;2022-08-19T03:39:28;6.25;;;4.93;;
68010;SDS011;54794;48.348;7.878;2022-08-19T03:41:56;6.35;;;5.32;;
68010;SDS011;54794;48.348;7.878;2022-08-19T03:44:44;5.50;;;4.97;;
68010;SDS011;54794;48.348;7.878;2022-08-19T03:47:11;9.70;;;4.63;;
68010;SDS011;54794;48.348;7.878;2022-08-19T03:49:42;5.07;;;4.50;;
68010;SDS011;54794;48.348;7.878;2022-08-19T03:52:10;5.53;;;4.88;;
68010;SDS011;54794;48.348;7.878;2022-08-19T03:54:37;5.07;;;4.57;;
68010;SDS011;54794;48.348;7.878;2022-08-19T03:57:04;5.95;;;4.22;;
68010;SDS011;54794;48.348;7.878;2022-08-19T03:59:33;4.65;;;4.25;;
68010;SDS011;54794;48.348;7.878;2022-08-19T04:02:05;4.93;;;4.15;;
68010;SDS011;54794;48.348;7.878;2022-08-19T04:04:37;6.22;;;4.80;;
68010;SDS011;54794;48.348;7.878;2022-08-19T04:07:06;5.38;;;4.40;;
68010;SDS011;54794;48.348;7.878;2022-08-19T04:09:35;4.60;;;4.13;;
68010;SDS011;54794;48.348;7.878;2022-08-19T04:14:31;7.15;;;4.68;;
68010;SDS011;54794;48.348;7.878;2022-08-19T04:17:00;5.65;;;4.88;;
68010;SDS011;54794;48.348;7.878;2022-08-19T04:19:31;5.82;;;4.72;;
68010;SDS011;54794;48.348;7.878;2022-08-19T04:22:01;9.07;;;5.18;;
68010;SDS011;54794;48.348;7.878;2022-08-19T04:24:28;5.93;;;5.28;;
68010;SDS011;54794;48.348;7.878;2022-08-19T04:26:56;6.28;;;5.00;;
68010;SDS011;54794;48.348;7.878;2022-08-19T04:29:27;7.97;;;4.95;;
68010;SDS011;54794;48.348;7.878;2022-08-19T04:31:56;7.70;;;5.72;;
68010;SDS011;54794;48.348;7.878;2022-08-19T04:34:25;5.95;;;5.22;;
68010;SDS011;54794;48.348;7.878;2022-08-19T04:36:55;6.35;;;5.43;;
68010;SDS011;54794;48.348;7.878;2022-08-19T04:39:27;5.82;;;5.22;;
68010;SDS011;54794;48.348;7.878;2022-08-19T04:42:15;6.10;;;5.50;;
68010;SDS011;54794;48.348;7.878;2022-08-19T04:45:03;5.87;;;5.10;;
68010;SDS011;54794;48.348;7.878;2022-08-19T04:47:38;5.10;;;4.28;;
68010;SDS011;54794;48.348;7.878;2022-08-19T04:50:24;6.22;;;5.30;;
68010;SDS011;54794;48.348;7.878;2022-08-19T04:52:52;6.40;;;5.35;;
68010;SDS011;54794;48.348;7.878;2022-08-19T04:55:21;6.25;;;3.88;;
68010;SDS011;54794;48.348;7.878;2022-08-19T04:57:51;6.47;;;5.55;;
68010;SDS011;54794;48.348;7.878;2022-08-19T05:00:19;5.80;;;5.20;;
68010;SDS011;54794;48.348;7.878;2022-08-19T05:02:46;7.05;;;5.65;;
68010;SDS011;54794;48.348;7.878;2022-08-19T05:05:15;6.68;;;5.82;;
68010;SDS011;54794;48.348;7.878;2022-08-19T05:07:42;6.05;;;5.40;;
68010;SDS011;54794;48.348;7.878;2022-08-19T05:10:09;7.20;;;5.95;;
68010;SDS011;54794;48.348;7.878;2022-08-19T05:12:36;7.63;;;5.85;;
68010;SDS011;54794;48.348;7.878;2022-08-19T05:15:04;9.35;;;5.63;;
68010;SDS011;54794;48.348;7.878;2022-08-19T05:17:34;6.60;;;5.95;;
68010;SDS011;54794;48.348;7.878;2022-08-19T05:20:05;5.85;;;5.25;;
68010;SDS011;54794;48.348;7.878;2022-08-19T05:22:52;8.15;;;5.25;;
68010;SDS011;54794;48.348;7.878;2022-08-19T05:25:19;5.65;;;5.03;;
68010;SDS011;54794;48.348;7.878;2022-08-19T05:27:48;5.53;;;4.82;;
68010;SDS011;54794;48.348;7.878;2022-08-19T05:30:15;7.68;;;5.65;;
68010;SDS011;54794;48.348;7.878;2022-08-19T05:32:58;6.68;;;5.18;;
68010;SDS011;54794;48.348;7.878;2022-08-19T05:35:26;6.65;;;5.43;;
68010;SDS011;54794;48.348;7.878;2022-08-19T05:37:59;6.38;;;5.78;;
68010;SDS011;54794;48.348;7.878;2022-08-19T05:40:27;6.53;;;5.90;;
68010;SDS011;54794;48.348;7.878;2022-08-19T05:45:22;6.63;;;5.57;;
68010;SDS011;54794;48.348;7.878;2022-08-19T05:47:48;5.53;;;5.03;;
68010;SDS011;54794;48.348;7.878;2022-08-19T05:50:15;6.60;;;5.88;;
68010;SDS011;54794;48.348;7.878;2022-08-19T05:52:43;5.72;;;5.13;;
68010;SDS011;54794;48.348;7.878;2022-08-19T05:55:16;7.25;;;6.20;;
68010;SDS011;54794;48.348;7.878;2022-08-19T05:57:43;5.78;;;5.18;;
68010;SDS011;54794;48.348;7.878;2022-08-19T06:00:10;6.18;;;5.25;;
68010;SDS011;54794;48.348;7.878;2022-08-19T06:02:38;8.15;;;6.07;;
68010;SDS011;54794;48.348;7.878;2022-08-19T06:05:06;7.22;;;6.13;;
68010;SDS011;54794;48.348;7.878;2022-08-19T06:07:35;8.57;;;7.38;;
68010;SDS011;54794;48.348;7.878;2022-08-19T06:10:04;8.98;;;6.60;;
68010;SDS011;54794;48.348;7.878;2022-08-19T06:12:35;4.95;;;4.45;;
68010;SDS011;54794;48.348;7.878;2022-08-19T06:15:08;5.53;;;5.00;;
68010;SDS011;54794;48.348;7.878;2022-08-19T06:17:39;7.20;;;5.97;;
68010;SDS011;54794;48.348;7.878;2022-08-19T06:20:08;6.70;;;6.00;;
68010;SDS011;54794;48.348;7.878;2022-08-19T06:22:43;7.55;;;5.55;;
68010;SDS011;54794;48.348;7.878;2022-08-19T06:25:18;7.60;;;6.25;;
68010;SDS011;54794;48.348;7.878;2022-08-19T06:27:46;8.40;;;6.00;;
68010;SDS011;54794;48.348;7.878;2022-08-19T06:30:33;6.63;;;5.90;;
68010;SDS011;54794;48.348;7.878;2022-08-19T06:32:59;8.45;;;5.80;;
68010;SDS011;54794;48.348;7.878;2022-08-19T06:35:26;6.75;;;5.70;;
68010;SDS011;54794;48.348;7.878;2022-08-19T06:37:55;5.50;;;5.00;;
68010;SDS011;54794;48.348;7.878;2022-08-19T06:40:22;8.73;;;5.60;;
68010;SDS011;54794;48.348;7.878;2022-08-19T06:42:49;7.82;;;7.00;;
68010;SDS011;54794;48.348;7.878;2022-08-19T06:45:21;6.82;;;6.13;;
68010;SDS011;54794;48.348;7.878;2022-08-19T06:47:49;7.53;;;6.10;;
68010;SDS011;54794;48.348;7.878;2022-08-19T06:50:20;7.15;;;6.18;;
68010;SDS011;54794;48.348;7.878;2022-08-19T06:52:50;9.65;;;7.68;;
68010;SDS011;54794;48.348;7.878;2022-08-19T06:55:18;7.15;;;6.45;;
68010;SDS011;54794;48.348;7.878;2022-08-19T06:57:46;8.93;;;7.63;;
68010;SDS011;54794;48.348;7.878;2022-08-19T07:00:14;11.80;;;8.48;;
68010;SDS011;54794;48.348;7.878;2022-08-19T07:02:42;8.82;;;7.55;;
68010;SDS011;54794;48.348;7.878;2022-08-19T07:05:18;8.10;;;6.90;;
68010;SDS011;54794;48.348;7.878;2022-08-19T07:07:45;6.90;;;5.85;;
68010;SDS011;54794;48.348;7.878;2022-08-19T07:10:12;7.00;;;5.60;;
68010;SDS011;54794;48.348;7.878;2022-08-19T07:12:40;7.90;;;7.03;;
68010;SDS011;54794;48.348;7.878;2022-08-19T07:15:07;9.68;;;7.65;;
68010;SDS011;54794;48.348;7.878;2022-08-19T07:17:37;5.72;;;5.13;;
68010;SDS011;54794;48.348;7.878;2022-08-19T07:20:07;7.82;;;7.03;;
68010;SDS011;54794;48.348;7.878;2022-08-19T07:22:38;7.85;;;6.97;;
68010;SDS011;54794;48.348;7.878;2022-08-19T07:25:07;8.57;;;7.55;;
68010;SDS011;54794;48.348;7.878;2022-08-19T07:27:36;6.60;;;5.88;;
68010;SDS011;54794;48.348;7.878;2022-08-19T07:30:05;9.65;;;7.40;;
68010;SDS011;54794;48.348;7.878;2022-08-19T07:32:38;7.05;;;6.18;;
68010;SDS011;54794;48.348;7.878;2022-08-19T07:35:06;9.27;;;7.55;;
68010;SDS011;54794;48.348;7.878;2022-08-19T07:37:36;8.60;;;7.38;;
68010;SDS011;54794;48.348;7.878;2022-08-19T07:40:06;9.63;;;7.45;;
68010;SDS011;54794;48.348;7.878;2022-08-19T07:42:35;9.10;;;7.32;;
68010;SDS011;54794;48.348;7.878;2022-08-19T07:45:02;8.23;;;6.78;;
68010;SDS011;54794;48.348;7.878;2022-08-19T07:47:32;8.32;;;7.43;;
68010;SDS011;54794;48.348;7.878;2022-08-19T07:50:15;8.45;;;6.28;;
68010;SDS011;54794;48.348;7.878;2022-08-19T07:52:45;8.48;;;7.28;;
68010;SDS011;54794;48.348;7.878;2022-08-19T07:55:14;7.38;;;5.82;;
68010;SDS011;54794;48.348;7.878;2022-08-19T07:58:08;12.27;;;8.40;;
68010;SDS011;54794;48.348;7.878;2022-08-19T08:00:35;8.10;;;6.40;;
68010;SDS011;54794;48.348;7.878;2022-08-19T08:03:02;8.70;;;7.30;;
68010;SDS011;54794;48.348;7.878;2022-08-19T08:05:29;7.90;;;6.68;;
68010;SDS011;54794;48.348;7.878;2022-08-19T08:08:19;8.27;;;7.25;;
68010;SDS011;54794;48.348;7.878;2022-08-19T08:11:01;9.57;;;7.72;;
68010;SDS011;54794;48.348;7.878;2022-08-19T08:13:33;8.45;;;7.40;;
68010;SDS011;54794;48.348;7.878;2022-08-19T08:16:02;8.07;;;6.97;;
68010;SDS011;54794;48.348;7.878;2022-08-19T08:18:35;8.85;;;7.00;;
68010;SDS011;54794;48.348;7.878;2022-08-19T08:21:07;8.27;;;7.43;;
68010;SDS011;54794;48.348;7.878;2022-08-19T08:23:35;9.02;;;8.05;;
68010;SDS011;54794;48.348;7.878;2022-08-19T08:26:04;9.95;;;8.40;;
68010;SDS011;54794;48.348;7.878;2022-08-19T08:28:31;10.38;;;8.25;;
68010;SDS011;54794;48.348;7.878;2022-08-19T08:30:58;10.52;;;9.18;;
68010;SDS011;54794;48.348;7.878;2022-08-19T08:33:27;12.00;;;8.32;;
68010;SDS011;54794;48.348;7.878;2022-08-19T08:36:06;10.13;;;6.85;;
68010;SDS011;54794;48.348;7.878;2022-08-19T08:38:37;7.17;;;6.10;;
68010;SDS011;54794;48.348;7.878;2022-08-19T08:44:20;8.07;;;7.25;;
68010;SDS011;54794;48.348;7.878;2022-08-19T08:47:13;9.15;;;7.38;;
68010;SDS011;54794;48.348;7.878;2022-08-19T08:49:56;10.85;;;9.45;;
68010;SDS011;54794;48.348;7.878;2022-08-19T08:52:35;8.98;;;7.18;;
68010;SDS011;54794;48.348;7.878;2022-08-19T08:55:13;8.88;;;7.55;;
68010;SDS011;54794;48.348;7.878;2022-08-19T08:58:06;11.88;;;9.50;;
68010;SDS011;54794;48.348;7.878;2022-08-19T09:00:43;12.27;;;8.63;;
68010;SDS011;54794;48.348;7.878;2022-08-19T09:03:21;12.45;;;9.85;;
68010;SDS011;54794;48.348;7.878;2022-08-19T09:06:01;11.50;;;8.60;;
68010;SDS011;54794;48.348;7.878;2022-08-19T09:11:30;11.38;;;9.10;;
68010;SDS011;54794;48.348;7.878;2022-08-19T09:17:25;7.50;;;6.35;;
68010;SDS011;54794;48.348;7.878;2022-08-19T09:22:48;12.57;;;8.90;;
68010;SDS011;54794;48.348;7.878;2022-08-19T09:25:16;12.40;;;9.18;;
68010;SDS011;54794;48.348;7.878;2022-08-19T09:27:54;11.02;;;8.80;;
68010;SDS011;54794;48.348;7.878;2022-08-19T09:30:41;13.60;;;9.55;;
68010;SDS011;54794;48.348;7.878;2022-08-19T09:33:08;12.43;;;10.00;;
68010;SDS011;54794;48.348;7.878;2022-08-19T09:35:35;10.93;;;8.32;;
68010;SDS011;54794;48.348;7.878;2022-08-19T09:38:18;11.15;;;8.95;;
68010;SDS011;54794;48.348;7.878;2022-08-19T09:40:46;10.57;;;9.10;;
68010;SDS011;54794;48.348;7.878;2022-08-19T09:43:13;11.90;;;9.55;;
68010;SDS011;54794;48.348;7.878;2022-08-19T09:45:58;11.80;;;8.77;;
68010;SDS011;54794;48.348;7.878;2022-08-19T09:48:26;13.18;;;8.93;;
68010;SDS011;54794;48.348;7.878;2022-08-19T09:50:53;10.10;;;8.98;;
68010;SDS011;54794;48.348;7.878;2022-08-19T09:53:20;9.77;;;8.68;;
68010;SDS011;54794;48.348;7.878;2022-08-19T09:55:50;12.57;;;8.48;;
68010;SDS011;54794;48.348;7.878;2022-08-19T09:58:17;10.30;;;8.15;;
68010;SDS011;54794;48.348;7.878;2022-08-19T10:00:49;10.65;;;9.07;;
68010;SDS011;54794;48.348;7.878;2022-08-19T10:03:16;11.20;;;8.32;;
68010;SDS011;54794;48.348;7.878;2022-08-19T10:08:18;10.25;;;8.48;;
68010;SDS011;54794;48.348;7.878;2022-08-19T10:10:52;12.05;;;8.13;;
68010;SDS011;54794;48.348;7.878;2022-08-19T10:13:25;14.35;;;8.68;;
68010;SDS011;54794;48.348;7.878;2022-08-19T10:16:02;10.40;;;7.95;;
68010;SDS011;54794;48.348;7.878;2022-08-19T10:18:36;10.43;;;7.90;;
68010;SDS011;54794;48.348;7.878;2022-08-19T10:21:10;13.38;;;8.38;;
68010;SDS011;54794;48.348;7.878;2022-08-19T10:24:06;7.32;;;6.50;;
68010;SDS011;54794;48.348;7.878;2022-08-19T10:26:37;10.25;;;7.43;;
68010;SDS011;54794;48.348;7.878;2022-08-19T10:29:08;12.20;;;8.73;;
68010;SDS011;54794;48.348;7.878;2022-08-19T10:31:35;10.00;;;8.27;;
68010;SDS011;54794;48.348;7.878;2022-08-19T10:34:23;9.25;;;7.70;;
68010;SDS011;54794;48.348;7.878;2022-08-19T10:36:53;12.88;;;8.18;;
68010;SDS011;54794;48.348;7.878;2022-08-19T10:39:26;10.25;;;8.07;;
68010;SDS011;54794;48.348;7.878;2022-08-19T10:42:06;10.00;;;7.75;;
68010;SDS011;54794;48.348;7.878;2022-08-19T10:44:35;9.48;;;8.50;;
68010;SDS011;54794;48.348;7.878;2022-08-19T10:47:03;10.07;;;8.43;;
68010;SDS011;54794;48.348;7.878;2022-08-19T10:49:49;8.75;;;7.60;;
68010;SDS011;54794;48.348;7.878;2022-08-19T10:52:37;10.73;;;8.35;;
68010;SDS011;54794;48.348;7.878;2022-08-19T10:55:15;8.15;;;7.20;;
68010;SDS011;54794;48.348;7.878;2022-08-19T10:58:15;8.57;;;7.47;;
68010;SDS011;54794;48.348;7.878;2022-08-19T11:00:53;8.10;;;6.72;;
68010;SDS011;54794;48.348;7.878;2022-08-19T11:03:25;8.82;;;6.68;;
68010;SDS011;54794;48.348;7.878;2022-08-19T11:05:57;7.55;;;6.78;;
68010;SDS011;54794;48.348;7.878;2022-08-19T11:08:26;11.85;;;6.80;;
68010;SDS011;54794;48.348;7.878;2022-08-19T11:10:54;10.38;;;6.15;;
68010;SDS011;54794;48.348;7.878;2022-08-19T11:13:23;7.88;;;7.07;;
68010;SDS011;54794;48.348;7.878;2022-08-19T11:16:00;8.90;;;7.70;;
68010;SDS011;54794;48.348;7.878;2022-08-19T11:21:29;9.02;;;6.80;;
68010;SDS011;54794;48.348;7.878;2022-08-19T11:24:02;9.30;;;6.95;;
68010;SDS011;54794;48.348;7.878;2022-08-19T11:26:41;6.85;;;5.75;;
68010;SDS011;54794;48.348;7.878;2022-08-19T11:29:11;7.35;;;6.53;;
68010;SDS011;54794;48.348;7.878;2022-08-19T11:31:41;9.50;;;6.85;;
68010;SDS011;54794;48.348;7.878;2022-08-19T11:34:14;11.90;;;7.72;;
68010;SDS011;54794;48.348;7.878;2022-08-19T11:36:46;8.27;;;5.78;;
68010;SDS011;54794;48.348;7.878;2022-08-19T11:39:16;8.43;;;6.88;;
68010;SDS011;54794;48.348;7.878;2022-08-19T11:41:46;11.98;;;7.28;;
68010;SDS011;54794;48.348;7.878;2022-08-19T11:46:41;7.60;;;6.30;;
68010;SDS011;54794;48.348;7.878;2022-08-19T11:49:14;8.98;;;6.97;;
68010;SDS011;54794;48.348;7.878;2022-08-19T11:51:46;8.55;;;7.07;;
68010;SDS011;54794;48.348;7.878;2022-08-19T11:54:16;8.02;;;7.00;;
68010;SDS011;54794;48.348;7.878;2022-08-19T11:56:44;9.45;;;8.18;;
68010;SDS011;54794;48.348;7.878;2022-08-19T11:59:12;10.75;;;7.68;;
68010;SDS011;54794;48.348;7.878;2022-08-19T12:01:40;8.18;;;6.00;;
68010;SDS011;54794;48.348;7.878;2022-08-19T12:04:09;11.60;;;7.60;;
68010;SDS011;54794;48.348;7.878;2022-08-19T12:06:37;8.93;;;7.18;;
68010;SDS011;54794;48.348;7.878;2022-08-19T12:09:08;8.38;;;6.72;;
68010;SDS011;54794;48.348;7.878;2022-08-19T12:11:37;10.20;;;6.82;;
68010;SDS011;54794;48.348;7.878;2022-08-19T12:14:06;9.35;;;7.05;;
68010;SDS011;54794;48.348;7.878;2022-08-19T12:16:40;9.13;;;6.55;;
68010;SDS011;54794;48.348;7.878;2022-08-19T12:19:16;9.75;;;6.82;;
68010;SDS011;54794;48.348;7.878;2022-08-19T12:21:47;10.18;;;6.35;;
68010;SDS011;54794;48.348;7.878;2022-08-19T12:24:15;6.70;;;5.70;;
68010;SDS011;54794;48.348;7.878;2022-08-19T12:26:48;8.82;;;7.00;;
68010;SDS011;54794;48.348;7.878;2022-08-19T12:29:18;8.13;;;7.30;;
68010;SDS011;54794;48.348;7.878;2022-08-19T12:31:49;10.35;;;7.03;;
68010;SDS011;54794;48.348;7.878;2022-08-19T12:34:17;9.30;;;8.10;;
68010;SDS011;54794;48.348;7.878;2022-08-19T12:36:45;9.70;;;7.53;;
68010;SDS011;54794;48.348;7.878;2022-08-19T12:39:15;8.25;;;6.85;;
68010;SDS011;54794;48.348;7.878;2022-08-19T12:41:42;7.07;;;6.00;;
68010;SDS011;54794;48.348;7.878;2022-08-19T12:44:20;6.65;;;6.05;;
68010;SDS011;54794;48.348;7.878;2022-08-19T12:46:57;7.13;;;5.97;;
68010;SDS011;54794;48.348;7.878;2022-08-19T12:49:27;8.60;;;6.13;;
68010;SDS011;54794;48.348;7.878;2022-08-19T12:52:15;5.88;;;5.28;;
68010;SDS011;54794;48.348;7.878;2022-08-19T12:54:48;7.25;;;5.47;;
68010;SDS011;54794;48.348;7.878;2022-08-19T12:57:20;8.32;;;5.07;;
68010;SDS011;54794;48.348;7.878;2022-08-19T13:00:09;6.72;;;6.03;;
68010;SDS011;54794;48.348;7.878;2022-08-19T13:02:41;8.15;;;5.18;;
68010;SDS011;54794;48.348;7.878;2022-08-19T13:05:16;5.53;;;5.00;;
68010;SDS011;54794;48.348;7.878;2022-08-19T13:07:53;6.05;;;5.40;;
68010;SDS011;54794;48.348;7.878;2022-08-19T13:10:23;7.13;;;6.00;;
68010;SDS011;54794;48.348;7.878;2022-08-19T13:12:57;6.35;;;5.70;;
68010;SDS011;54794;48.348;7.878;2022-08-19T13:15:25;6.15;;;3.92;;
68010;SDS011;54794;48.348;7.878;2022-08-19T13:17:54;4.97;;;4.47;;
68010;SDS011;54794;48.348;7.878;2022-08-19T13:20:22;5.30;;;4.75;;
68010;SDS011;54794;48.348;7.878;2022-08-19T13:22:50;7.60;;;5.15;;
68010;SDS011;54794;48.348;7.878;2022-08-19T13:25:17;6.07;;;5.00;;
68010;SDS011;54794;48.348;7.878;2022-08-19T13:27:46;5.90;;;5.15;;
68010;SDS011;54794;48.348;7.878;2022-08-19T13:30:15;5.45;;;4.75;;
68010;SDS011;54794;48.348;7.878;2022-08-19T13:33:04;5.18;;;4.55;;
68010;SDS011;54794;48.348;7.878;2022-08-19T13:36:19;4.70;;;4.20;;
68010;SDS011;54794;48.348;7.878;2022-08-19T13:38:27;4.55;;;4.15;;
68010;SDS011;54794;48.348;7.878;2022-08-19T13:40:57;6.32;;;4.68;;
68010;SDS011;54794;48.348;7.878;2022-08-19T13:43:36;5.05;;;4.55;;
68010;SDS011;54794;48.348;7.878;2022-08-19T13:46:07;5.35;;;4.82;;
68010;SDS011;54794;48.348;7.878;2022-08-19T13:48:40;5.30;;;4.53;;
68010;SDS011;54794;48.348;7.878;2022-08-19T13:51:08;7.18;;;3.80;;
68010;SDS011;54794;48.348;7.878;2022-08-19T13:53:37;4.72;;;4.25;;
68010;SDS011;54794;48.348;7.878;2022-08-19T13:56:06;6.40;;;4.88;;
68010;SDS011;54794;48.348;7.878;2022-08-19T13:58:36;6.78;;;4.07;;
68010;SDS011;54794;48.348;7.878;2022-08-19T14:01:04;4.60;;;3.65;;
68010;SDS011;54794;48.348;7.878;2022-08-19T14:03:33;4.50;;;3.88;;
68010;SDS011;54794;48.348;7.878;2022-08-19T14:06:00;4.90;;;4.20;;
68010;SDS011;54794;48.348;7.878;2022-08-19T14:08:28;4.82;;;3.83;;
68010;SDS011;54794;48.348;7.878;2022-08-19T14:10:58;3.58;;;3.28;;
68010;SDS011;54794;48.348;7.878;2022-08-19T14:13:31;3.50;;;3.20;;
68010;SDS011;54794;48.348;7.878;2022-08-19T14:16:00;4.15;;;3.40;;
68010;SDS011;54794;48.348;7.878;2022-08-19T14:18:26;3.85;;;3.55;;
68010;SDS011;54794;48.348;7.878;2022-08-19T14:20:56;5.65;;;4.07;;
68010;SDS011;54794;48.348;7.878;2022-08-19T14:23:24;4.07;;;3.50;;
68010;SDS011;54794;48.348;7.878;2022-08-19T14:25:51;3.95;;;3.20;;
68010;SDS011;54794;48.348;7.878;2022-08-19T14:28:18;4.43;;;3.30;;
68010;SDS011;54794;48.348;7.878;2022-08-19T14:30:45;3.75;;;3.40;;
68010;SDS011;54794;48.348;7.878;2022-08-19T14:33:11;4.30;;;3.38;;
68010;SDS011;54794;48.348;7.878;2022-08-19T14:35:39;3.20;;;2.90;;
68010;SDS011;54794;48.348;7.878;2022-08-19T14:38:14;4.88;;;3.15;;
68010;SDS011;54794;48.348;7.878;2022-08-19T14:41:07;3.60;;;2.97;;
68010;SDS011;54794;48.348;7.878;2022-08-19T14:43:42;5.55;;;3.10;;
68010;SDS011;54794;48.348;7.878;2022-08-19T14:46:14;5.65;;;3.70;;
68010;SDS011;54794;48.348;7.878;2022-08-19T14:48:46;5.95;;;3.58;;
68010;SDS011;54794;48.348;7.878;2022-08-19T14:51:18;4.63;;;4.10;;
68010;SDS011;54794;48.348;7.878;2022-08-19T14:53:48;14.57;;;3.65;;
68010;SDS011;54794;48.348;7.878;2022-08-19T14:56:17;7.55;;;4.72;;
68010;SDS011;54794;48.348;7.878;2022-08-19T14:58:48;5.35;;;4.18;;
68010;SDS011;54794;48.348;7.878;2022-08-19T15:01:21;6.30;;;4.00;;
68010;SDS011;54794;48.348;7.878;2022-08-19T15:03:49;4.97;;;3.97;;
68010;SDS011;54794;48.348;7.878;2022-08-19T15:06:19;4.57;;;4.18;;
68010;SDS011;54794;48.348;7.878;2022-08-19T15:08:48;4.15;;;3.63;;
68010;SDS011;54794;48.348;7.878;2022-08-19T15:11:18;3.63;;;3.33;;
68010;SDS011;54794;48.348;7.878;2022-08-19T15:13:49;4.10;;;3.63;;
68010;SDS011;54794;48.348;7.878;2022-08-19T15:16:17;7.65;;;3.83;;
68010;SDS011;54794;48.348;7.878;2022-08-19T15:18:46;5.20;;;3.47;;
68010;SDS011;54794;48.348;7.878;2022-08-19T15:21:17;5.07;;;4.13;;
68010;SDS011;54794;48.348;7.878;2022-08-19T15:23:52;4.15;;;3.75;;
68010;SDS011;54794;48.348;7.878;2022-08-19T15:26:21;5.65;;;4.05;;
68010;SDS011;54794;48.348;7.878;2022-08-19T15:28:49;3.75;;;3.33;;
68010;SDS011;54794;48.348;7.878;2022-08-19T15:31:17;4.03;;;3.63;;
68010;SDS011;54794;48.348;7.878;2022-08-19T15:33:54;3.90;;;3.55;;
68010;SDS011;54794;48.348;7.878;2022-08-19T15:36:24;3.65;;;3.28;;
68010;SDS011;54794;48.348;7.878;2022-08-19T15:38:52;2.92;;;2.63;;
68010;SDS011;54794;48.348;7.878;2022-08-19T15:41:27;4.13;;;3.50;;
68010;SDS011;54794;48.348;7.878;2022-08-19T15:44:00;5.03;;;2.80;;
68010;SDS011;54794;48.348;7.878;2022-08-19T15:46:36;3.40;;;3.10;;